Time;durP1;ratioP1;P1;durP2;ratioP2;P2;SDS_P1;SDS_P2;PMS_P1;PMS_P2;Temp;Humidity;BMP_temperature;BMP_pressure;BME280_temperature;BME280_humidity;BME280_pressure;Samples;Min_cycle;Max_cycle;Signal;HPM_P1;HPM_P2
2021/11/18 00:02:03;;;;;;;20.33;18.23;;;;;;;7.97;72.02;100837.50;4913562;28;96985;-83
2021/11/18 00:04:29;;;;;;;20.73;18.52;;;;;;;7.97;71.73;100842.75;4906449;28;97533;-82
2021/11/18 00:06:58;;;;;;;19.73;17.83;;;;;;;8.02;71.70;100844.41;4897906;28;95789;-84
2021/11/18 00:14:52;;;;;;;;;;;;;;;7.96;71.73;100841.88;5776747;23;99321;-81
2021/11/18 00:17:17;;;;;;;20.05;17.95;;;;;;;7.95;71.64;100837.56;4891210;28;95922;-83
2021/11/18 00:26:10;;;;;;;20.65;18.13;;;;;;;8.08;71.41;100856.53;4967691;23;96523;-85
2021/11/18 00:28:36;;;;;;;20.98;18.92;;;;;;;7.93;71.75;100845.41;4875047;28;96784;-84
2021/11/18 00:31:04;;;;;;;20.20;18.38;;;;;;;8.01;71.36;100847.06;4875394;28;96524;-84
2021/11/18 00:33:32;;;;;;;18.75;16.90;;;;;;;8.01;71.88;100853.13;4889151;28;99465;-84
2021/11/18 00:35:58;;;;;;;19.15;17.20;;;;;;;7.98;71.93;100847.09;4890500;28;99405;-83
2021/11/18 00:38:24;;;;;;;20.30;18.00;;;;;;;8.10;71.53;100860.84;4874891;28;96450;-83
2021/11/18 00:40:52;;;;;;;18.95;17.05;;;;;;;8.04;71.54;100847.88;4890924;28;96621;-83
2021/11/18 04:06:01;;;;;;;14.45;12.75;;;;;;;7.94;68.17;100963.91;3696088;23;98487;-82
2021/11/18 04:08:27;;;;;;;17.87;12.93;;;;;;;7.96;67.87;100950.81;4888243;28;100165;-86
2021/11/18 04:14:42;;;;;;;14.25;11.88;;;;;;;8.04;67.99;100967.28;4907815;28;95856;-84
2021/11/18 04:20:15;;;;;;;13.90;11.87;;;;;;;8.03;67.93;100973.38;5671166;23;99017;-84
2021/11/18 04:22:43;;;;;;;15.10;12.75;;;;;;;8.05;68.34;100979.47;4906750;28;96600;-83
2021/11/18 04:25:11;;;;;;;16.23;12.32;;;;;;;7.96;68.70;100967.38;4891001;28;96159;-85
2021/11/18 04:38:54;;;;;;;21.73;12.55;;;;;;;7.97;68.67;100976.06;5414310;23;98750;-82
2021/11/18 05:05:38;;;;;;;14.65;9.77;;;;;;;7.86;68.80;100981.47;5063822;23;98508;-85
2021/11/18 05:08:12;;;;;;;14.45;9.20;;;;;;;7.86;68.79;100978.84;4874816;28;96138;-86
2021/11/18 05:10:39;;;;;;;13.95;9.35;;;;;;;7.90;69.15;100980.53;4890011;28;96702;-86
2021/11/18 05:17:02;;;;;;;12.35;9.43;;;;;;;7.87;68.77;100991.03;4909439;28;95875;-83
2021/11/18 05:23:22;;;;;;;14.88;9.55;;;;;;;7.83;68.74;100989.34;4900020;28;96095;-85
2021/11/18 05:34:01;;;;;;;19.13;9.80;;;;;;;7.80;68.63;100994.59;5675371;23;98503;-84
2021/11/18 05:48:19;;;;;;;14.73;9.52;;;;;;;7.86;68.20;100998.00;5177209;23;98238;-84
2021/11/18 05:50:52;;;;;;;14.45;9.27;;;;;;;7.95;68.09;101012.72;4866988;29;96492;-80
2021/11/18 06:02:23;;;;;;;15.63;8.55;;;;;;;7.93;68.26;101004.00;5898212;23;99108;-81
2021/11/18 06:04:49;;;;;;;14.23;8.80;;;;;;;7.98;67.90;101011.81;4903939;28;96246;-82
2021/11/18 06:39:39;;;;;;;;;;;;;;;8.11;67.62;101056.06;5920246;23;98912;-80
2021/11/18 08:12:04;;;;;;;14.98;6.00;;;;;;;8.91;65.35;101081.19;6197859;22;98885;-86
2021/11/18 08:14:32;;;;;;;14.00;6.13;;;;;;;8.95;65.52;101079.41;6202279;22;98887;-83
2021/11/18 08:19:39;;;;;;;15.48;6.90;;;;;;;8.87;65.41;101086.50;6195638;22;98660;-85
2021/11/18 08:22:43;;;;;;;15.40;6.07;;;;;;;8.86;65.46;101093.50;6203369;22;99948;-88
2021/11/18 09:04:35;;;;;;;16.92;5.97;;;;;;;10.17;62.72;101165.56;6175334;22;97911;-79
2021/11/18 09:07:03;;;;;;;17.77;5.70;;;;;;;10.05;63.73;101171.03;6147594;22;97865;-80
2021/11/18 10:17:24;;;;;;;16.10;4.13;;;;;;;12.00;58.18;101114.97;6166378;22;99928;-77
2021/11/18 10:50:23;;;;;;;13.52;4.03;;;;;;;11.26;60.54;101094.97;6108132;22;102968;-78
2021/11/18 11:00:42;;;;;;;11.73;3.30;;;;;;;11.21;59.84;101096.84;4951241;27;97174;-77
2021/11/18 11:03:30;;;;;;;15.30;3.25;;;;;;;11.32;59.90;101113.22;4966408;28;97006;-77
2021/11/18 11:06:05;;;;;;;8.88;3.53;;;;;;;11.37;59.99;101115.72;4958359;28;97758;-79
2021/11/18 11:08:31;;;;;;;13.18;3.40;;;;;;;11.38;59.88;101120.94;4964097;28;97999;-80
2021/11/18 11:11:02;;;;;;;9.15;3.67;;;;;;;11.37;59.53;101106.06;4956078;28;96623;-80
2021/11/18 11:13:55;;;;;;;8.43;3.30;;;;;;;11.30;59.86;101094.84;4961541;28;96619;-79
2021/11/18 11:16:21;;;;;;;12.35;4.10;;;;;;;11.29;60.41;101092.25;4941651;28;100803;-79
2021/11/18 11:18:48;;;;;;;12.15;4.05;;;;;;;11.27;59.93;101094.91;4971702;28;99253;-79
2021/11/18 11:21:44;;;;;;;14.40;3.78;;;;;;;11.26;59.75;101110.75;4967201;28;97970;-79
2021/11/18 11:24:51;;;;;;;12.65;3.63;;;;;;;11.25;59.78;101124.75;4952679;28;96756;-80
2021/11/18 11:27:49;;;;;;;12.35;3.47;;;;;;;11.26;60.18;101116.84;4920828;28;100683;-79
2021/11/18 11:30:24;;;;;;;13.07;3.92;;;;;;;11.24;59.70;101115.16;4952887;28;100464;-80
2021/11/18 11:32:58;;;;;;;15.93;4.22;;;;;;;11.15;59.62;101121.50;4948535;28;96842;-80
2021/11/18 11:35:27;;;;;;;15.13;3.95;;;;;;;11.17;59.99;101124.06;4933204;28;96770;-80
2021/11/18 11:38:37;;;;;;;14.15;3.88;;;;;;;11.19;59.23;101124.91;4962550;28;99498;-80
2021/11/18 11:41:21;;;;;;;13.90;3.60;;;;;;;11.09;59.42;101130.38;4935377;28;100531;-79
2021/11/18 11:44:09;;;;;;;11.98;3.75;;;;;;;11.23;59.16;101127.44;4952676;28;96717;-79
2021/11/18 11:46:44;;;;;;;8.18;2.72;;;;;;;11.40;59.13;101120.88;4954042;28;96594;-80
2021/11/18 11:49:24;;;;;;;10.13;3.88;;;;;;;11.52;59.21;101115.34;4967307;28;97933;-79
2021/11/18 11:52:01;;;;;;;10.30;3.58;;;;;;;11.51;58.81;101101.31;4944513;28;100414;-79
2021/11/18 11:54:36;;;;;;;15.68;3.80;;;;;;;11.49;58.12;101092.63;4957601;28;96736;-80
2021/11/18 11:57:10;;;;;;;12.88;3.53;;;;;;;11.49;58.62;101099.63;4950541;28;96774;-80
2021/11/18 11:59:41;;;;;;;10.55;3.67;;;;;;;11.50;58.75;101096.09;4953989;28;100678;-79
2021/11/18 12:02:26;;;;;;;13.95;3.88;;;;;;;11.44;58.65;101096.28;4970990;28;97825;-80
2021/11/18 12:05:01;;;;;;;8.07;2.95;;;;;;;11.33;58.90;101084.25;4939356;28;96599;-80
2021/11/18 12:07:56;;;;;;;13.35;3.53;;;;;;;11.25;59.14;101086.19;4941283;28;97059;-80
2021/11/18 12:10:32;;;;;;;14.48;3.70;;;;;;;11.32;58.99;101082.53;4913745;28;100098;-79
2021/11/18 12:13:18;;;;;;;11.13;3.10;;;;;;;11.35;58.31;101080.72;4955262;28;97825;-79
2021/11/18 12:15:50;;;;;;;8.60;3.28;;;;;;;11.21;58.83;101089.81;4936746;28;97258;-80
2021/11/18 12:18:41;;;;;;;12.50;3.60;;;;;;;11.14;58.85;101090.88;4925773;28;96798;-83
2021/11/18 12:21:08;;;;;;;12.00;2.80;;;;;;;11.07;59.29;101090.13;4923556;28;97334;-81
2021/11/18 12:24:09;;;;;;;9.35;3.00;;;;;;;11.05;59.16;101086.69;4939277;28;100660;-81
2021/11/18 12:26:55;;;;;;;10.97;3.17;;;;;;;11.06;59.31;101082.31;4903167;28;96895;-83
2021/11/18 12:29:27;;;;;;;10.52;3.58;;;;;;;11.08;59.04;101080.47;4937182;28;96818;-80
2021/11/18 12:32:08;;;;;;;14.63;4.03;;;;;;;11.23;58.91;101074.88;4940686;28;97470;-80
2021/11/18 12:34:49;;;;;;;11.05;4.80;;;;;;;11.31;59.15;101065.03;4955145;28;99627;-81
2021/11/18 12:37:35;;;;;;;14.52;4.13;;;;;;;11.42;58.55;101063.88;4941286;28;96634;-80
2021/11/18 12:40:22;;;;;;;21.73;4.05;;;;;;;11.45;58.86;101055.91;4939049;28;96865;-80
2021/11/18 12:43:14;;;;;;;13.07;3.65;;;;;;;11.45;58.25;101055.91;4939287;28;99773;-80
2021/11/18 12:46:16;;;;;;;12.30;3.67;;;;;;;11.30;58.42;101039.63;4938907;28;97468;-80
2021/11/18 12:48:54;;;;;;;;;;;;;;;11.24;58.84;101042.44;4939983;28;96519;-79
2021/11/18 12:51:41;;;;;;;11.88;3.45;;;;;;;11.19;59.13;101040.81;4955974;28;96891;-79
2021/11/18 12:54:10;;;;;;;10.75;3.90;;;;;;;11.25;58.93;101043.28;4955422;28;97766;-80
2021/11/18 12:57:25;;;;;;;10.48;3.17;;;;;;;11.30;58.73;101034.38;4954998;28;98809;-80
2021/11/18 12:59:57;;;;;;;11.50;4.03;;;;;;;11.36;59.16;101037.75;4955595;28;96757;-81
2021/11/18 13:02:28;;;;;;;;;;;;;;;11.34;59.14;101040.41;4940034;28;96592;-81
2021/11/18 13:05:20;;;;;;;9.50;3.47;;;;;;;11.29;59.41;101031.81;4940152;28;96941;-83
2021/11/18 13:07:49;;;;;;;10.10;3.47;;;;;;;11.27;59.33;101025.72;4922838;28;100634;-82
2021/11/18 13:10:18;;;;;;;10.40;3.80;;;;;;;11.36;59.49;101029.88;4939197;28;96646;-84
2021/11/18 13:12:48;;;;;;;12.52;4.63;;;;;;;11.33;59.58;101041.31;4955563;28;96913;-83
2021/11/18 13:15:17;;;;;;;12.63;3.55;;;;;;;11.25;59.70;101045.91;4938522;28;100767;-82
2021/11/18 13:17:51;;;;;;;12.45;4.22;;;;;;;11.16;60.07;101049.63;4922346;28;97580;-78
2021/11/18 13:20:48;;;;;;;12.30;4.20;;;;;;;11.09;60.10;101053.34;4923115;28;96551;-80
2021/11/18 13:23:18;;;;;;;14.50;4.10;;;;;;;11.08;60.33;101028.81;4937525;28;96881;-80
2021/11/18 13:25:49;;;;;;;9.40;3.88;;;;;;;11.02;60.55;101035.97;4938497;28;98282;-80
2021/11/18 13:28:26;;;;;;;10.43;4.15;;;;;;;10.94;60.63;101048.44;4922157;28;100735;-83
2021/11/18 13:30:56;;;;;;;9.43;3.70;;;;;;;10.93;60.84;101057.22;4955615;28;96435;-84
2021/11/18 13:33:35;;;;;;;11.48;3.45;;;;;;;10.85;60.71;101028.53;4922238;28;96881;-78
2021/11/18 13:36:09;;;;;;;11.43;3.55;;;;;;;10.92;60.63;101039.75;4954034;28;100604;-78
2021/11/18 13:38:50;;;;;;;8.48;3.40;;;;;;;10.88;60.71;101042.44;4954063;28;98630;-82
2021/11/18 13:41:34;;;;;;;11.23;3.38;;;;;;;10.92;60.66;101045.84;4922435;28;96797;-78
2021/11/18 13:44:02;;;;;;;7.07;2.83;;;;;;;10.94;60.44;101058.94;4922598;28;96760;-79
2021/11/18 13:46:35;;;;;;;7.95;2.60;;;;;;;10.97;60.74;101062.38;4905849;28;101007;-78
2021/11/18 13:49:04;;;;;;;8.73;3.30;;;;;;;10.96;60.86;101067.66;4954441;28;97225;-81
2021/11/18 13:51:54;;;;;;;11.73;4.15;;;;;;;10.96;60.91;101073.75;4939622;28;96477;-80
2021/11/18 13:54:35;;;;;;;10.93;3.67;;;;;;;10.93;61.22;101073.84;4922310;28;96867;-79
2021/11/18 13:57:09;;;;;;;7.60;3.45;;;;;;;10.90;61.05;101063.41;4905674;28;100424;-80
2021/11/18 13:59:40;;;;;;;8.60;3.45;;;;;;;10.87;61.28;101060.84;4953897;28;97406;-81
2021/11/18 14:02:11;;;;;;;12.33;4.13;;;;;;;10.84;61.44;101074.06;4938676;28;96598;-81
2021/11/18 14:04:48;;;;;;;;;;;;;;;10.73;61.69;101071.66;4939206;28;96429;-79
2021/11/18 14:07:15;;;;;;;9.82;3.80;;;;;;;10.73;61.83;101073.44;4937585;28;100536;-80
2021/11/18 14:10:08;;;;;;;9.18;3.50;;;;;;;10.72;62.03;101071.72;4905537;28;98677;-80
2021/11/18 14:12:38;;;;;;;8.60;4.68;;;;;;;10.70;62.03;101070.88;4936435;28;96817;-80
2021/11/18 14:15:29;;;;;;;9.30;3.95;;;;;;;10.64;62.18;101064.84;4954496;28;96826;-80
2021/11/18 14:18:06;;;;;;;14.27;4.65;;;;;;;10.63;62.04;101062.28;4895602;28;101095;-81
2021/11/18 14:20:41;;;;;;;13.48;5.32;;;;;;;10.57;62.67;101063.28;4938704;28;97414;-79
2021/11/18 14:23:25;;;;;;;15.77;5.05;;;;;;;10.57;62.82;101058.03;4938577;28;96873;-80
2021/11/18 14:26:11;;;;;;;9.93;4.72;;;;;;;10.54;62.57;101044.97;4938040;28;96852;-78
2021/11/18 14:28:39;;;;;;;15.15;5.63;;;;;;;10.46;63.21;101049.53;4937611;28;98160;-78
2021/11/18 14:31:27;;;;;;;11.23;5.15;;;;;;;10.49;63.43;101062.56;4953757;28;97461;-79
2021/11/18 14:34:07;;;;;;;12.90;4.60;;;;;;;10.47;63.36;101071.38;4921607;28;96488;-79
2021/11/18 14:36:49;;;;;;;12.00;4.43;;;;;;;10.53;63.07;101097.50;4937983;28;96778;-79
2021/11/18 14:39:17;;;;;;;11.80;5.10;;;;;;;10.50;63.25;101089.69;4920979;28;100702;-79
2021/11/18 14:41:50;;;;;;;11.88;4.47;;;;;;;10.47;63.50;101080.16;4953341;28;99341;-79
2021/11/18 14:44:31;;;;;;;14.40;4.68;;;;;;;10.48;63.35;101073.13;4937941;28;96647;-79
2021/11/18 14:47:00;;;;;;;11.32;5.40;;;;;;;10.46;63.34;101074.91;4905598;28;96863;-79
2021/11/18 14:49:32;;;;;;;14.45;5.38;;;;;;;10.47;63.78;101064.41;4920422;28;98241;-78
2021/11/18 14:52:38;;;;;;;18.10;5.43;;;;;;;10.48;63.90;101062.63;4953134;28;97833;-79
2021/11/18 14:55:16;;;;;;;13.73;4.68;;;;;;;10.46;63.71;101065.28;4936969;28;96612;-79
2021/11/18 14:57:51;;;;;;;14.65;5.25;;;;;;;10.41;63.78;101067.13;4953932;28;96600;-79
2021/11/18 15:00:20;;;;;;;10.57;4.55;;;;;;;10.40;63.80;101057.53;4951689;28;99237;-79
2021/11/18 15:02:45;;;;;;;13.90;4.53;;;;;;;10.45;63.55;101065.31;4936680;28;100044;-79
2021/11/18 15:05:11;;;;;;;15.50;4.90;;;;;;;10.43;63.56;101073.22;4937424;28;96583;-79
2021/11/18 15:07:36;;;;;;;12.68;4.50;;;;;;;10.39;63.74;101071.56;4953672;28;96900;-79
2021/11/18 15:10:13;;;;;;;11.95;4.88;;;;;;;10.33;64.04;101071.69;4952456;28;98675;-78
2021/11/18 15:12:40;;;;;;;22.48;8.65;;;;;;;10.36;64.12;101074.25;4905259;28;100310;-78
2021/11/18 15:15:13;;;;;;;15.57;7.38;;;;;;;10.39;63.76;101085.53;4952977;28;96697;-78
2021/11/18 15:17:40;;;;;;;11.93;5.57;;;;;;;10.36;64.14;101082.13;4952813;28;96721;-79
2021/11/18 15:20:07;;;;;;;12.98;6.03;;;;;;;10.35;64.19;101088.25;4920128;28;100515;-79
2021/11/18 15:22:33;;;;;;;11.07;4.75;;;;;;;10.41;63.83;101085.50;4936333;28;100182;-79
2021/11/18 15:25:04;;;;;;;16.05;5.05;;;;;;;10.38;63.80;101086.47;4952569;28;96732;-79
2021/11/18 15:27:30;;;;;;;16.77;5.45;;;;;;;10.34;63.79;101076.03;4936735;28;96794;-79
2021/11/18 15:29:55;;;;;;;13.10;5.18;;;;;;;10.29;64.16;101070.88;4919438;28;100673;-79
2021/11/18 15:32:25;;;;;;;14.90;5.45;;;;;;;10.31;63.93;101069.09;4951834;28;99538;-79
2021/11/18 15:34:52;;;;;;;13.65;5.43;;;;;;;10.27;64.01;101072.69;4919456;28;96520;-79
2021/11/18 15:37:18;;;;;;;17.00;4.97;;;;;;;10.23;64.53;101057.00;4919640;28;96839;-78
2021/11/18 15:39:44;;;;;;;14.10;6.00;;;;;;;10.26;64.09;101057.78;4951510;28;100826;-79
2021/11/18 15:42:11;;;;;;;19.33;5.22;;;;;;;10.24;64.48;101058.72;4935677;28;97463;-80
2021/11/18 15:44:37;;;;;;;16.35;5.40;;;;;;;10.26;64.22;101073.53;4919944;28;96545;-79
2021/11/18 15:47:04;;;;;;;14.35;4.93;;;;;;;10.25;64.56;101074.44;4922860;28;96789;-79
2021/11/18 15:49:30;;;;;;;16.52;5.15;;;;;;;10.20;64.48;101078.91;4906386;28;100265;-78
2021/11/18 15:51:59;;;;;;;12.45;4.68;;;;;;;10.25;64.06;101069.19;4939272;28;97372;-78
2021/11/18 15:54:25;;;;;;;11.98;5.22;;;;;;;10.21;64.49;101070.16;4938894;28;96619;-78
2021/11/18 15:56:51;;;;;;;16.88;6.22;;;;;;;10.27;64.42;101071.81;4923279;28;96703;-79
2021/11/18 15:59:18;;;;;;;12.75;4.70;;;;;;;10.30;63.78;101058.66;4905428;28;100320;-79
2021/11/18 16:01:53;;;;;;;11.90;4.70;;;;;;;10.33;63.80;101063.81;4938329;28;99253;-78
2021/11/18 16:04:21;;;;;;;11.48;5.85;;;;;;;10.29;64.13;101070.00;4922386;28;96697;-78
2021/11/18 16:06:55;;;;;;;16.02;6.05;;;;;;;10.22;64.43;101073.66;4938891;28;96727;-78
2021/11/18 16:09:22;;;;;;;13.90;5.47;;;;;;;10.28;63.80;101087.53;4938611;28;97419;-77
2021/11/18 16:11:57;;;;;;;14.10;6.20;;;;;;;10.28;64.29;101082.28;4954382;28;100315;-80
2021/11/18 16:14:32;;;;;;;12.90;5.05;;;;;;;10.29;64.13;101078.75;4922666;28;96689;-78
2021/11/18 16:17:03;;;;;;;15.23;5.25;;;;;;;10.24;64.30;101069.22;4922816;28;96891;-78
2021/11/18 16:19:31;;;;;;;18.70;5.82;;;;;;;10.22;64.58;101071.03;4953746;28;100215;-78
2021/11/18 16:21:58;;;;;;;12.07;4.93;;;;;;;10.19;64.44;101071.94;4922128;28;100276;-78
2021/11/18 16:24:23;;;;;;;13.43;5.00;;;;;;;10.22;63.85;101076.28;4954254;28;96486;-78
2021/11/18 16:26:50;;;;;;;19.25;6.25;;;;;;;10.19;63.92;101069.31;4954997;28;97263;-78
2021/11/18 16:29:21;;;;;;;11.68;4.78;;;;;;;10.12;64.41;101068.59;4938341;28;97546;-78
2021/11/18 16:31:49;;;;;;;14.35;5.72;;;;;;;10.14;64.41;101072.03;4905905;28;100553;-78
2021/11/18 16:34:16;;;;;;;13.48;6.30;;;;;;;10.10;64.25;101072.13;4922630;28;96583;-78
2021/11/18 16:36:43;;;;;;;15.63;5.82;;;;;;;10.09;64.11;101086.13;4922358;28;96867;-80
2021/11/18 16:39:09;;;;;;;20.13;6.63;;;;;;;10.08;64.07;101087.03;4954280;28;100232;-79
2021/11/18 16:41:39;;;;;;;17.15;6.25;;;;;;;10.09;63.91;101070.38;4922146;28;97645;-79
2021/11/18 16:44:05;;;;;;;16.85;6.38;;;;;;;10.05;64.22;101073.97;4906267;28;96683;-80
2021/11/18 16:46:32;;;;;;;15.68;5.88;;;;;;;10.10;63.85;101069.50;4922028;28;96918;-79
2021/11/18 16:48:59;;;;;;;16.90;6.45;;;;;;;10.06;63.76;101078.31;4937480;28;100503;-79
2021/11/18 16:51:38;;;;;;;17.08;7.45;;;;;;;10.11;63.60;101081.72;4905629;28;100456;-78
2021/11/18 16:54:04;;;;;;;19.88;8.55;;;;;;;10.11;63.53;101071.22;4906267;28;96588;-80
2021/11/18 16:56:32;;;;;;;21.65;8.70;;;;;;;10.13;63.58;101078.19;4938481;28;96836;-81
2021/11/18 16:59:00;;;;;;;18.30;7.20;;;;;;;10.10;63.40;101085.25;4920605;28;100079;-81
2021/11/18 17:01:30;;;;;;;16.27;6.78;;;;;;;10.11;63.79;101073.84;4937831;28;97774;-81
2021/11/18 17:03:56;;;;;;;16.10;6.85;;;;;;;10.08;63.49;101073.91;4922246;28;96546;-80
2021/11/18 17:06:23;;;;;;;21.40;7.95;;;;;;;10.09;63.26;101071.25;4938572;28;96758;-78
2021/11/18 17:08:50;;;;;;;16.63;7.38;;;;;;;10.12;63.61;101063.34;4953981;28;97791;-80
2021/11/18 17:11:22;;;;;;;20.02;6.70;;;;;;;10.06;63.25;101067.81;4921315;28;100251;-79
2021/11/18 17:13:48;;;;;;;;;;;;;;;10.04;63.43;101072.25;4938378;28;96659;-81
2021/11/18 17:16:15;;;;;;;14.82;6.43;;;;;;;10.01;63.47;101064.47;4937841;28;96975;-81
2021/11/18 17:18:43;;;;;;;17.23;6.78;;;;;;;10.01;63.54;101069.69;4953711;28;96958;-80
2021/11/18 17:21:14;;;;;;;17.42;6.20;;;;;;;10.12;62.65;101068.59;4904838;28;100575;-82
2021/11/18 17:23:41;;;;;;;14.25;6.10;;;;;;;10.06;63.06;101057.34;4922219;28;96555;-81
2021/11/18 17:26:08;;;;;;;15.65;5.95;;;;;;;10.03;62.65;101063.50;4922211;28;96754;-81
2021/11/18 17:28:35;;;;;;;20.08;6.88;;;;;;;10.05;63.04;101058.25;4905250;28;100438;-84
2021/11/18 17:31:04;;;;;;;19.63;6.13;;;;;;;10.07;62.90;101061.72;4954012;28;100078;-83
2021/11/18 17:33:30;;;;;;;15.77;6.78;;;;;;;10.07;62.65;101052.06;4921803;28;96552;-82
2021/11/18 17:36:00;;;;;;;16.38;6.88;;;;;;;10.09;62.43;101047.63;4922079;28;96587;-83
2021/11/18 17:38:34;;;;;;;14.73;5.95;;;;;;;10.03;62.31;101039.91;4936847;28;98032;-81
2021/11/18 17:41:06;;;;;;;15.60;6.07;;;;;;;10.06;62.01;101042.44;4923083;28;99794;-82
2021/11/18 17:43:34;;;;;;;15.50;5.93;;;;;;;9.95;62.81;101026.97;4937206;28;96445;-81
2021/11/18 17:46:07;;;;;;;16.75;6.22;;;;;;;9.95;62.71;101029.59;4937013;28;96957;-82
2021/11/18 17:48:36;;;;;;;16.20;6.10;;;;;;;10.00;62.49;101037.34;4937174;28;97966;-81
2021/11/18 17:51:08;;;;;;;13.80;5.68;;;;;;;9.99;62.82;101019.88;4920278;28;100953;-82
2021/11/18 17:53:34;;;;;;;15.23;6.07;;;;;;;9.95;62.79;101033.97;4937405;28;96524;-81
2021/11/18 17:56:00;;;;;;;14.80;6.18;;;;;;;10.02;62.38;101037.31;4921423;28;96838;-82
2021/11/18 17:58:33;;;;;;;15.43;5.78;;;;;;;9.96;62.49;101027.81;4919994;28;100947;-85
2021/11/18 18:01:06;;;;;;;15.45;5.45;;;;;;;10.05;62.07;101026.75;4921212;28;100337;-82
2021/11/18 18:03:33;;;;;;;16.67;6.03;;;;;;;9.98;62.56;101023.41;4920509;28;96700;-82
2021/11/18 18:05:59;;;;;;;16.27;6.50;;;;;;;10.06;62.20;101029.34;4921022;28;96951;-80
2021/11/18 18:08:25;;;;;;;13.70;5.68;;;;;;;9.96;61.96;101025.19;4936042;28;98156;-81
2021/11/18 18:10:51;;;;;;;15.88;6.18;;;;;;;10.01;62.11;101027.72;4920092;28;99459;-80
2021/11/18 18:13:17;;;;;;;17.25;5.75;;;;;;;10.05;61.89;101029.38;4904654;28;96663;-80
2021/11/18 18:15:44;;;;;;;16.25;6.22;;;;;;;10.05;61.75;101037.25;4936402;28;96919;-80
2021/11/18 18:18:11;;;;;;;14.60;7.20;;;;;;;10.05;61.82;101039.88;4921162;28;97625;-81
2021/11/18 18:20:41;;;;;;;17.50;6.82;;;;;;;10.01;61.75;101036.47;4936812;28;97302;-80
2021/11/18 18:23:08;;;;;;;18.35;7.03;;;;;;;10.03;62.25;101029.41;4936776;28;96655;-81
2021/11/18 18:25:35;;;;;;;15.30;6.38;;;;;;;10.07;62.13;101025.84;4920684;28;96910;-80
2021/11/18 18:28:01;;;;;;;12.38;6.03;;;;;;;10.11;61.36;101024.00;4903517;28;100550;-82
2021/11/18 18:30:31;;;;;;;16.45;6.63;;;;;;;10.05;61.42;101006.63;4936127;28;99994;-79
2021/11/18 18:32:57;;;;;;;17.05;7.43;;;;;;;10.04;61.69;101004.91;4937108;28;96583;-81
2021/11/18 18:35:23;;;;;;;12.50;6.93;;;;;;;10.03;61.78;101012.81;4936208;28;96864;-81
2021/11/18 18:37:50;;;;;;;17.20;7.15;;;;;;;10.04;61.43;101011.94;4920198;28;98108;-80
2021/11/18 18:40:26;;;;;;;14.68;7.00;;;;;;;10.05;61.24;101017.13;4904145;28;99428;-80
2021/11/18 18:42:52;;;;;;;17.67;6.35;;;;;;;10.12;61.20;101013.50;4952474;28;96577;-80
2021/11/18 18:45:20;;;;;;;18.17;6.50;;;;;;;10.08;61.11;101009.19;4904693;28;96903;-80
2021/11/18 18:47:47;;;;;;;16.35;6.22;;;;;;;10.04;61.12;101004.06;4904091;28;100337;-80
2021/11/18 18:50:17;;;;;;;17.10;5.93;;;;;;;10.07;61.34;101004.00;4920100;28;96632;-80
2021/11/18 18:52:44;;;;;;;17.40;6.40;;;;;;;10.05;60.88;100992.66;4903759;28;96564;-80
2021/11/18 18:55:12;;;;;;;15.95;6.00;;;;;;;10.09;60.77;100991.69;4920339;28;97096;-81
2021/11/18 18:57:38;;;;;;;16.60;6.18;;;;;;;10.11;61.03;100984.66;4935999;28;97579;-84
2021/11/18 19:00:16;;;;;;;15.45;5.82;;;;;;;10.10;60.71;100977.69;4903510;28;99657;-85
2021/11/18 19:02:43;;;;;;;14.60;6.30;;;;;;;10.08;61.02;100990.84;4904911;28;96667;-84
2021/11/18 19:05:10;;;;;;;16.85;6.30;;;;;;;10.10;60.32;100982.94;4921286;28;96837;-84
2021/11/18 19:07:37;;;;;;;20.45;5.70;;;;;;;10.14;60.37;101001.19;4936323;28;100547;-82
2021/11/18 19:10:06;;;;;;;11.55;5.10;;;;;;;10.11;60.40;100997.78;4920398;28;100215;-85
2021/11/18 19:12:32;;;;;;;15.20;6.32;;;;;;;10.05;60.37;100996.16;4920545;28;96570;-85
2021/11/18 19:15:01;;;;;;;15.60;5.57;;;;;;;10.04;60.19;100994.44;4920647;28;97009;-82
2021/11/18 19:17:27;;;;;;;15.15;5.50;;;;;;;10.07;60.92;100997.00;4919056;28;100678;-83
2021/11/18 19:19:54;;;;;;;14.40;5.80;;;;;;;10.07;60.46;100997.00;4918956;28;98795;-80
2021/11/18 19:22:26;;;;;;;14.40;6.00;;;;;;;10.11;60.45;100990.75;4923142;28;96661;-80
2021/11/18 19:24:52;;;;;;;14.13;6.47;;;;;;;10.13;60.30;100988.13;4907327;28;96887;-82
2021/11/18 19:27:25;;;;;;;17.00;6.68;;;;;;;10.06;59.91;100974.25;4938958;28;99048;-81
2021/11/18 19:32:46;;;;;;;17.55;7.13;;;;;;;10.13;60.09;100986.34;4955794;28;96464;-80
2021/11/18 19:35:22;;;;;;;16.65;6.30;;;;;;;10.18;59.98;100997.63;4940624;28;96774;-82
2021/11/18 19:37:53;;;;;;;14.55;6.03;;;;;;;10.12;59.60;100989.88;4923429;28;97608;-81
2021/11/18 19:40:29;;;;;;;14.03;5.37;;;;;;;10.18;59.34;101000.25;4955584;28;99890;-83
2021/11/18 19:42:55;;;;;;;17.20;7.72;;;;;;;10.16;59.43;100983.66;4923359;28;96452;-83
2021/11/18 19:45:26;;;;;;;15.00;6.22;;;;;;;10.17;59.52;100988.00;4956849;28;96632;-88
2021/11/18 19:47:51;;;;;;;10.15;5.25;;;;;;;10.19;59.19;100980.97;4924099;28;97665;-81
2021/11/18 19:50:19;;;;;;;16.50;5.75;;;;;;;10.14;59.32;100977.56;4939137;28;97372;-84
2021/11/18 19:52:49;;;;;;;15.32;5.70;;;;;;;10.17;59.13;100976.66;4939727;28;97090;-79
2021/11/18 19:55:19;;;;;;;12.50;5.25;;;;;;;10.22;59.13;100977.41;4907561;28;96842;-81
2021/11/18 19:57:45;;;;;;;13.27;4.90;;;;;;;10.15;58.90;100974.06;4922287;28;100199;-80
2021/11/18 20:00:16;;;;;;;13.23;5.45;;;;;;;10.19;59.12;100962.59;4955133;28;100127;-80
2021/11/18 20:02:43;;;;;;;12.85;5.53;;;;;;;10.13;59.22;100965.38;4940664;28;96703;-82
2021/11/18 20:05:09;;;;;;;18.15;5.78;;;;;;;10.21;58.79;100962.59;4939257;28;96413;-80
2021/11/18 20:07:34;;;;;;;10.80;5.53;;;;;;;10.17;58.77;100947.78;4922031;28;100474;-82
2021/11/18 20:10:00;;;;;;;14.93;5.13;;;;;;;10.15;58.85;100955.72;4922595;28;100574;-82
2021/11/18 20:12:29;;;;;;;9.90;4.20;;;;;;;10.23;59.01;100965.16;4955314;28;96725;-81
2021/11/18 20:14:57;;;;;;;13.15;4.43;;;;;;;10.22;58.50;100959.06;4955453;28;97032;-82
2021/11/18 20:17:24;;;;;;;13.25;4.75;;;;;;;10.20;58.92;100956.44;4955046;28;97584;-80
2021/11/18 20:19:50;;;;;;;10.35;4.55;;;;;;;10.17;58.68;100955.66;4938105;28;98720;-83
2021/11/18 20:22:18;;;;;;;15.10;4.65;;;;;;;10.24;58.84;100964.25;4939464;28;96567;-79
2021/11/18 20:24:45;;;;;;;11.88;4.35;;;;;;;10.18;59.09;100967.88;4906874;28;96992;-82
2021/11/18 20:27:12;;;;;;;12.77;5.00;;;;;;;10.19;58.99;100961.75;4938552;28;100613;-83
2021/11/18 20:29:42;;;;;;;15.95;4.97;;;;;;;10.20;59.05;100968.72;4954694;28;100102;-82
2021/11/18 20:32:15;;;;;;;10.23;4.03;;;;;;;10.21;58.84;100952.09;4905653;28;96613;-80
2021/11/18 20:34:45;;;;;;;13.18;4.47;;;;;;;10.20;59.36;100953.81;4938728;28;96707;-82
2021/11/18 20:37:19;;;;;;;10.40;4.03;;;;;;;10.21;59.44;100946.84;4905855;28;100654;-81
2021/11/18 20:39:46;;;;;;;10.75;4.07;;;;;;;10.16;59.39;100936.44;4922137;28;100183;-81
2021/11/18 20:42:13;;;;;;;10.93;4.40;;;;;;;10.21;59.13;100933.72;4954996;28;96546;-80
2021/11/18 20:44:39;;;;;;;13.60;3.80;;;;;;;10.20;nan;100934.59;4938917;28;96809;-83
2021/11/18 20:47:11;;;;;;;10.68;3.53;;;;;;;10.18;59.12;100934.66;4954598;28;97802;-84
2021/11/18 20:49:39;;;;;;;10.45;4.45;;;;;;;10.22;59.42;100937.22;4938591;28;97468;-82
2021/11/18 20:52:15;;;;;;;12.30;4.68;;;;;;;10.22;59.50;100924.94;4955023;28;97062;-84
2021/11/18 20:54:41;;;;;;;13.30;5.07;;;;;;;10.14;59.80;100919.00;4906029;28;96906;-80
2021/11/18 20:57:18;;;;;;;10.55;4.72;;;;;;;10.17;59.24;100929.44;4937322;28;100766;-82
2021/11/18 20:59:43;;;;;;;13.93;4.68;;;;;;;10.15;59.79;100923.34;4905026;28;98739;-80
2021/11/18 21:02:12;;;;;;;12.35;4.47;;;;;;;10.19;59.41;100925.03;4954015;28;96815;-83
2021/11/18 21:04:40;;;;;;;15.52;4.88;;;;;;;10.17;59.90;100925.03;4938340;28;96866;-82
2021/11/18 21:07:09;;;;;;;10.77;4.80;;;;;;;10.18;59.88;100933.78;4921533;28;101188;-81
2021/11/18 21:09:37;;;;;;;12.85;4.28;;;;;;;10.25;59.82;100931.88;4921666;28;97694;-80